createdAt,value
2018-10-21T00:01:53.517Z,5.70
2018-10-21T00:04:22.029Z,5.70
2018-10-21T00:06:50.564Z,5.80
2018-10-21T00:09:19.134Z,5.70
2018-10-21T00:11:48.159Z,5.60
2018-10-21T00:14:17.217Z,5.60
2018-10-21T00:16:46.859Z,5.50
2018-10-21T00:19:15.923Z,5.40
2018-10-21T00:21:46.685Z,5.40
2018-10-21T00:24:15.294Z,5.40
2018-10-21T00:26:44.544Z,5.30
2018-10-21T00:29:13.169Z,5.30
2018-10-21T00:31:41.766Z,5.30
2018-10-21T00:34:10.431Z,5.10
2018-10-21T00:36:39.012Z,5.10
2018-10-21T00:39:10.500Z,5.00
2018-10-21T00:41:38.970Z,4.90
2018-10-21T00:44:08.153Z,4.90
2018-10-21T00:46:36.922Z,4.80
2018-10-21T00:49:06.045Z,4.90
2018-10-21T00:51:34.558Z,4.90
2018-10-21T00:54:03.547Z,4.90
2018-10-21T00:56:32.122Z,4.90
2018-10-21T00:59:00.663Z,4.80
2018-10-21T01:01:29.326Z,4.80
2018-10-21T01:03:57.854Z,4.70
2018-10-21T01:06:26.313Z,4.70
2018-10-21T01:08:55.472Z,4.80
2018-10-21T01:11:23.983Z,4.80
2018-10-21T01:13:52.843Z,4.90
2018-10-21T01:16:21.581Z,5.00
2018-10-21T01:18:50.239Z,4.90
2018-10-21T01:24:27.459Z,4.90
2018-10-21T01:26:55.944Z,4.90
2018-10-21T01:29:24.435Z,4.80
2018-10-21T01:31:52.957Z,4.80
2018-10-21T01:34:35.620Z,4.80
2018-10-21T01:37:04.262Z,4.80
2018-10-21T01:39:43.875Z,4.80
2018-10-21T01:42:12.398Z,4.80
2018-10-21T01:44:40.992Z,4.80
2018-10-21T01:47:09.774Z,4.80
2018-10-21T01:49:42.165Z,4.80
2018-10-21T01:52:11.083Z,4.80
2018-10-21T01:54:40.000Z,4.80
2018-10-21T01:57:09.093Z,4.80
2018-10-21T01:59:37.821Z,4.80
2018-10-21T02:02:06.661Z,4.80
2018-10-21T02:04:35.685Z,4.90
2018-10-21T02:07:04.645Z,4.90
2018-10-21T02:09:33.631Z,4.80
2018-10-21T02:12:02.470Z,4.70
2018-10-21T02:14:31.508Z,4.60
2018-10-21T02:17:00.411Z,4.60
2018-10-21T02:19:29.971Z,4.50
2018-10-21T02:21:59.452Z,4.40
2018-10-21T02:24:28.349Z,4.40
2018-10-21T02:26:57.364Z,4.30
2018-10-21T02:29:26.241Z,4.30
2018-10-21T02:31:55.092Z,4.20
2018-10-21T02:34:23.973Z,4.10
2018-10-21T02:36:53.374Z,4.00
2018-10-21T02:39:22.253Z,4.00
2018-10-21T02:41:56.918Z,3.80
2018-10-21T02:44:29.473Z,3.80
2018-10-21T02:46:58.935Z,3.90
2018-10-21T02:49:28.060Z,3.90
2018-10-21T02:52:02.266Z,3.90
2018-10-21T02:54:32.287Z,3.90
2018-10-21T02:57:03.202Z,4.00
2018-10-21T02:59:31.941Z,4.10
2018-10-21T03:02:01.712Z,4.20
2018-10-21T03:04:30.663Z,4.30
2018-10-21T03:06:59.485Z,4.20
2018-10-21T03:09:29.283Z,4.30
2018-10-21T03:11:58.283Z,4.20
2018-10-21T03:14:27.172Z,4.20
2018-10-21T03:16:56.657Z,4.10
2018-10-21T03:19:25.542Z,4.10
2018-10-21T03:21:54.390Z,4.10
2018-10-21T03:24:23.960Z,4.10
2018-10-21T03:26:52.849Z,4.00
2018-10-21T03:29:21.696Z,4.00
2018-10-21T03:31:50.435Z,3.90
2018-10-21T03:34:19.370Z,3.90
2018-10-21T03:36:48.088Z,3.90
2018-10-21T03:39:16.909Z,4.00
2018-10-21T03:41:45.829Z,4.00
2018-10-21T03:44:16.629Z,4.10
2018-10-21T03:46:45.530Z,4.10
2018-10-21T03:49:14.399Z,4.20
2018-10-21T03:51:43.294Z,4.30
2018-10-21T03:54:12.506Z,4.30
2018-10-21T03:56:41.337Z,4.30
2018-10-21T03:59:10.072Z,4.40
2018-10-21T04:01:38.876Z,4.40
2018-10-21T04:04:07.702Z,4.40
2018-10-21T04:06:36.665Z,4.50
2018-10-21T04:09:07.445Z,4.60
2018-10-21T04:11:36.324Z,4.70
2018-10-21T04:14:05.158Z,4.70
2018-10-21T04:16:34.816Z,4.70
2018-10-21T04:19:03.681Z,4.80
2018-10-21T04:21:32.655Z,4.80
2018-10-21T04:24:01.662Z,4.80
2018-10-21T04:26:30.947Z,4.80
2018-10-21T04:28:59.853Z,4.70
2018-10-21T04:31:28.696Z,4.60
2018-10-21T04:33:57.578Z,4.60
2018-10-21T04:36:30.905Z,4.50
2018-10-21T04:39:35.852Z,4.60
2018-10-21T04:42:04.770Z,4.60
2018-10-21T04:44:33.668Z,4.60
2018-10-21T04:47:02.795Z,4.60
2018-10-21T04:49:31.541Z,4.50
2018-10-21T04:52:00.495Z,4.40
2018-10-21T04:54:33.496Z,4.30
2018-10-21T04:57:02.617Z,4.30
2018-10-21T05:03:09.672Z,4.20
2018-10-21T05:05:45.688Z,4.10
2018-10-21T05:08:19.220Z,3.90
2018-10-21T05:10:53.370Z,3.80
2018-10-21T05:13:25.174Z,3.70
2018-10-21T05:15:59.336Z,3.60
2018-10-21T05:18:27.821Z,3.50
2018-10-21T05:20:57.448Z,3.50
2018-10-21T05:23:25.932Z,3.40
2018-10-21T05:25:54.506Z,3.40
2018-10-21T05:28:22.999Z,3.40
2018-10-21T05:30:58.687Z,3.40
2018-10-21T05:33:27.248Z,3.30
2018-10-21T05:36:03.657Z,3.20
2018-10-21T05:38:32.149Z,3.20
2018-10-21T05:41:00.689Z,3.10
2018-10-21T05:43:29.741Z,3.20
2018-10-21T05:45:58.534Z,3.30
2018-10-21T05:48:27.271Z,3.30
2018-10-21T05:50:56.062Z,3.30
2018-10-21T05:53:24.547Z,3.40
2018-10-21T05:55:59.051Z,3.50
2018-10-21T05:58:27.587Z,3.70
2018-10-21T06:00:56.030Z,3.80
2018-10-21T06:03:24.600Z,4.00
2018-10-21T06:05:54.206Z,4.20
2018-10-21T06:08:26.092Z,4.30
2018-10-21T06:10:55.100Z,4.40
2018-10-21T06:13:24.133Z,4.50
2018-10-21T06:15:53.157Z,4.40
2018-10-21T06:18:25.076Z,4.30
2018-10-21T06:20:58.093Z,4.40
2018-10-21T06:23:29.219Z,4.40
2018-10-21T06:26:01.230Z,4.50
2018-10-21T06:28:30.216Z,4.60
2018-10-21T06:30:59.010Z,4.70
2018-10-21T06:33:32.432Z,4.70
2018-10-21T06:36:02.802Z,4.70
2018-10-21T06:38:31.725Z,4.80
2018-10-21T06:41:00.639Z,4.80
2018-10-21T06:43:30.737Z,5.00
2018-10-21T06:46:01.724Z,5.00
2018-10-21T06:48:30.700Z,5.10
2018-10-21T06:51:01.936Z,5.10
2018-10-21T06:53:30.711Z,5.20
2018-10-21T06:55:59.965Z,5.20
2018-10-21T06:58:28.891Z,5.40
2018-10-21T07:00:59.923Z,5.40
2018-10-21T07:03:29.316Z,5.40
2018-10-21T07:06:29.713Z,5.40
2018-10-21T07:09:02.006Z,5.50
2018-10-21T07:14:33.230Z,5.60
2018-10-21T07:17:02.122Z,5.70
2018-10-21T07:19:30.973Z,5.80
2018-10-21T07:21:59.867Z,5.80
2018-10-21T07:24:28.679Z,5.90
2018-10-21T07:26:58.139Z,5.80
2018-10-21T07:29:27.084Z,5.90
2018-10-21T07:31:56.039Z,5.70
2018-10-21T07:34:24.781Z,5.70
2018-10-21T07:36:54.304Z,5.60
2018-10-21T07:39:46.209Z,5.80
2018-10-21T07:42:17.377Z,5.90
2018-10-21T07:44:51.816Z,6.10
2018-10-21T07:47:20.601Z,6.20
2018-10-21T07:52:23.461Z,6.20
2018-10-21T07:54:52.366Z,6.40
2018-10-21T07:57:21.330Z,6.50
2018-10-21T07:59:50.330Z,6.60
2018-10-21T08:02:19.174Z,6.80
2018-10-21T08:04:47.979Z,7.10
2018-10-21T08:07:27.880Z,7.10
2018-10-21T08:09:56.881Z,7.00
2018-10-21T08:12:25.736Z,7.10
2018-10-21T08:14:54.698Z,7.50
2018-10-21T08:17:23.533Z,7.50
2018-10-21T08:19:53.639Z,7.60
2018-10-21T08:22:23.936Z,7.90
2018-10-21T08:24:53.669Z,8.30
2018-10-21T08:27:22.790Z,8.70
2018-10-21T08:29:55.656Z,8.50
2018-10-21T08:32:24.485Z,8.50
2018-10-21T08:34:53.401Z,8.50
2018-10-21T08:37:22.434Z,8.40
2018-10-21T08:39:51.484Z,8.30
2018-10-21T08:42:20.507Z,8.30
2018-10-21T08:44:50.060Z,8.50
2018-10-21T08:47:18.881Z,8.40
2018-10-21T08:49:47.805Z,8.50
2018-10-21T08:52:30.420Z,8.50
2018-10-21T08:54:59.426Z,8.70
2018-10-21T08:57:28.358Z,9.00
2018-10-21T08:59:57.360Z,9.40
2018-10-21T09:02:26.288Z,9.70
2018-10-21T09:04:55.684Z,9.90
2018-10-21T09:07:26.774Z,10.10
2018-10-21T09:09:55.955Z,10.30
2018-10-21T09:12:33.077Z,10.40
2018-10-21T09:15:02.078Z,10.60
2018-10-21T09:17:30.933Z,10.80
2018-10-21T09:19:59.944Z,11.20
2018-10-21T09:22:28.773Z,11.30
2018-10-21T09:24:57.732Z,11.30
2018-10-21T09:27:26.717Z,11.10
2018-10-21T09:30:01.029Z,10.60
2018-10-21T09:32:30.151Z,10.40
2018-10-21T09:34:59.228Z,10.40
2018-10-21T09:37:28.254Z,10.70
2018-10-21T09:39:57.353Z,10.70
2018-10-21T09:42:26.165Z,10.90
2018-10-21T09:44:55.213Z,11.00
2018-10-21T09:47:24.410Z,11.20
2018-10-21T09:49:53.609Z,11.30
2018-10-21T09:52:22.484Z,11.40
2018-10-21T09:54:51.354Z,11.70
2018-10-21T09:57:20.746Z,12.10
2018-10-21T09:59:49.653Z,13.10
2018-10-21T10:02:23.881Z,13.70
2018-10-21T10:04:52.823Z,15.10
2018-10-21T10:07:21.884Z,15.90
2018-10-21T10:09:50.678Z,16.00
2018-10-21T10:12:19.570Z,15.80
2018-10-21T10:14:52.796Z,15.70
2018-10-21T10:17:38.685Z,16.20
2018-10-21T10:20:09.271Z,17.70
2018-10-21T10:22:38.118Z,19.20
2018-10-21T10:25:12.064Z,20.40
2018-10-21T10:27:41.347Z,21.50
2018-10-21T10:30:16.023Z,22.30
2018-10-21T10:32:44.928Z,22.70
2018-10-21T10:35:15.125Z,22.80
2018-10-21T10:37:43.915Z,23.30
2018-10-21T10:40:13.758Z,22.60
2018-10-21T10:42:48.341Z,22.90
2018-10-21T10:45:17.264Z,23.10
2018-10-21T10:47:46.141Z,23.60
2018-10-21T10:50:14.998Z,23.40
2018-10-21T10:52:43.871Z,23.30
2018-10-21T10:55:18.629Z,24.00
2018-10-21T10:57:47.464Z,23.60
2018-10-21T11:00:16.344Z,24.00
2018-10-21T11:02:45.188Z,24.00
2018-10-21T11:05:18.419Z,23.70
2018-10-21T11:07:47.312Z,23.30
2018-10-21T11:10:16.285Z,21.80
2018-10-21T11:12:45.081Z,20.40
2018-10-21T11:15:13.970Z,19.00
2018-10-21T11:17:42.914Z,17.40
2018-10-21T11:20:12.829Z,16.60
2018-10-21T11:22:41.747Z,16.20
2018-10-21T11:25:10.679Z,15.80
2018-10-21T11:27:42.784Z,15.50
2018-10-21T11:30:11.621Z,15.40
2018-10-21T11:32:40.488Z,15.30
2018-10-21T11:35:09.282Z,15.20
2018-10-21T11:37:38.244Z,15.00
2018-10-21T11:40:07.373Z,15.00
2018-10-21T11:42:36.274Z,15.00
2018-10-21T11:45:05.965Z,15.00
2018-10-21T11:47:34.888Z,15.00
2018-10-21T11:50:03.975Z,14.90
2018-10-21T11:52:44.883Z,14.90
2018-10-21T11:55:14.541Z,14.90
2018-10-21T11:57:43.614Z,14.80
2018-10-21T12:00:12.645Z,14.70
2018-10-21T12:02:41.506Z,14.70
2018-10-21T12:05:10.468Z,14.80
2018-10-21T12:07:39.433Z,15.00
2018-10-21T12:10:08.663Z,15.00
2018-10-21T12:12:37.372Z,15.10
2018-10-21T12:15:06.749Z,15.00
2018-10-21T12:17:35.861Z,15.00
2018-10-21T12:20:04.754Z,15.00
2018-10-21T12:22:33.630Z,15.20
2018-10-21T12:25:02.541Z,15.40
2018-10-21T12:27:35.105Z,15.60
2018-10-21T12:30:03.996Z,15.90
2018-10-21T12:32:32.873Z,16.00
2018-10-21T12:35:01.795Z,16.30
2018-10-21T12:37:31.135Z,16.70
2018-10-21T12:40:00.070Z,17.00
2018-10-21T12:42:29.595Z,17.50
2018-10-21T12:44:58.488Z,18.20
2018-10-21T12:47:37.605Z,18.90
2018-10-21T12:50:06.778Z,19.60
2018-10-21T12:52:35.792Z,20.20
2018-10-21T12:55:05.360Z,20.90
2018-10-21T12:57:34.161Z,21.30
2018-10-21T13:00:03.020Z,21.30
2018-10-21T13:02:31.820Z,21.60
2018-10-21T13:05:00.548Z,22.00
2018-10-21T13:07:29.349Z,21.80
2018-10-21T13:09:58.258Z,21.80
2018-10-21T13:12:27.070Z,22.10
2018-10-21T13:14:55.930Z,21.70
2018-10-21T13:17:24.881Z,21.80
2018-10-21T13:19:53.806Z,21.70
2018-10-21T13:22:22.722Z,22.30
2018-10-21T13:24:51.602Z,22.80
2018-10-21T13:27:20.468Z,23.00
2018-10-21T13:29:49.300Z,22.90
2018-10-21T13:32:18.175Z,22.60
2018-10-21T13:34:47.166Z,22.40
2018-10-21T13:37:15.955Z,22.30
2018-10-21T13:39:44.935Z,22.10
2018-10-21T13:42:13.958Z,21.90
2018-10-21T13:44:42.772Z,21.70
2018-10-21T13:47:11.590Z,21.80
2018-10-21T13:49:40.437Z,21.70
2018-10-21T13:52:09.459Z,21.50
2018-10-21T13:54:38.056Z,21.50
2018-10-21T13:57:06.787Z,21.20
2018-10-21T13:59:35.706Z,21.30
2018-10-21T14:02:04.859Z,21.70
2018-10-21T14:04:35.617Z,21.70
2018-10-21T14:07:06.710Z,22.00
2018-10-21T14:09:35.575Z,21.90
2018-10-21T14:12:04.348Z,21.80
2018-10-21T14:14:33.333Z,21.00
2018-10-21T14:17:02.154Z,20.70
2018-10-21T14:19:31.282Z,20.90
2018-10-21T14:22:00.100Z,20.90
2018-10-21T14:24:29.013Z,21.20
2018-10-21T14:26:57.826Z,21.00
2018-10-21T14:29:45.788Z,20.40
2018-10-21T14:32:14.783Z,20.30
2018-10-21T14:34:43.767Z,20.20
2018-10-21T14:37:12.623Z,20.10
2018-10-21T14:39:41.624Z,19.80
2018-10-21T14:42:10.675Z,19.80
2018-10-21T14:44:39.645Z,19.80
2018-10-21T14:47:08.511Z,19.90
2018-10-21T14:49:37.438Z,19.70
2018-10-21T14:52:06.309Z,19.20
2018-10-21T14:54:35.265Z,19.00
2018-10-21T14:57:04.276Z,18.90
2018-10-21T14:59:33.176Z,19.00
2018-10-21T15:02:02.061Z,18.80
2018-10-21T15:04:33.021Z,18.60
2018-10-21T15:07:01.968Z,18.50
2018-10-21T15:09:30.990Z,18.30
2018-10-21T15:11:59.984Z,18.30
2018-10-21T15:14:28.901Z,18.30
2018-10-21T15:16:57.886Z,18.20
2018-10-21T15:19:26.773Z,17.70
2018-10-21T15:21:55.571Z,17.50
2018-10-21T15:24:48.346Z,17.30
2018-10-21T15:27:17.372Z,17.00
2018-10-21T15:29:46.343Z,16.90
2018-10-21T15:32:17.027Z,16.50
2018-10-21T15:34:46.139Z,16.10
2018-10-21T15:37:15.045Z,15.50
2018-10-21T15:39:44.066Z,14.90
2018-10-21T15:42:13.029Z,14.50
2018-10-21T15:44:41.959Z,14.00
2018-10-21T15:47:10.902Z,13.70
2018-10-21T15:49:40.773Z,13.40
2018-10-21T15:52:09.662Z,13.10
2018-10-21T15:54:38.592Z,12.90
2018-10-21T15:57:07.498Z,12.70
2018-10-21T15:59:36.500Z,12.50
2018-10-21T16:02:05.681Z,12.30
2018-10-21T16:04:34.825Z,12.10
2018-10-21T16:07:03.906Z,12.00
2018-10-21T16:09:33.974Z,11.90
2018-10-21T16:12:02.730Z,11.70
2018-10-21T16:14:31.957Z,11.60
2018-10-21T16:17:00.873Z,11.40
2018-10-21T16:19:30.702Z,11.30
2018-10-21T16:22:17.821Z,11.00
2018-10-21T16:24:46.748Z,10.70
2018-10-21T16:27:16.826Z,10.40
2018-10-21T16:29:46.841Z,10.10
2018-10-21T16:35:18.000Z,9.50
2018-10-21T16:37:48.032Z,9.20
2018-10-21T16:40:17.500Z,8.90
2018-10-21T16:42:46.514Z,8.80
2018-10-21T16:45:15.969Z,8.60
2018-10-21T16:47:44.900Z,8.50
2018-10-21T16:50:15.682Z,8.40
2018-10-21T16:52:45.545Z,8.10
2018-10-21T16:55:15.565Z,8.10
2018-10-21T16:57:44.725Z,8.00
2018-10-21T17:00:15.377Z,7.90
2018-10-21T17:02:44.334Z,7.80
2018-10-21T17:05:13.353Z,7.70
2018-10-21T17:07:42.375Z,7.70
2018-10-21T17:10:12.259Z,7.60
2018-10-21T17:12:59.791Z,7.50
2018-10-21T17:15:28.804Z,7.40
2018-10-21T17:17:57.802Z,7.30
2018-10-21T17:20:26.872Z,7.20
2018-10-21T17:22:55.983Z,7.20
2018-10-21T17:25:25.128Z,7.20
2018-10-21T17:27:54.173Z,7.10
2018-10-21T17:30:23.142Z,7.10
2018-10-21T17:33:08.274Z,7.10
2018-10-21T17:35:37.345Z,7.10
2018-10-21T17:38:06.467Z,7.00
2018-10-21T17:40:36.007Z,7.00
2018-10-21T17:43:05.658Z,7.00
2018-10-21T17:45:34.651Z,7.00
2018-10-21T17:48:03.771Z,7.00
2018-10-21T17:50:34.240Z,7.10
2018-10-21T17:53:03.270Z,7.10
2018-10-21T17:55:32.263Z,7.10
2018-10-21T17:58:15.737Z,7.10
2018-10-21T18:00:47.538Z,7.20
2018-10-21T18:03:16.512Z,7.10
2018-10-21T18:05:47.463Z,7.00
2018-10-21T18:08:16.507Z,6.80
2018-10-21T18:10:46.458Z,6.80
2018-10-21T18:13:17.509Z,6.70
2018-10-21T18:15:46.443Z,6.70
2018-10-21T18:18:15.619Z,6.60
2018-10-21T18:20:44.616Z,6.50
2018-10-21T18:23:14.490Z,6.50
2018-10-21T18:25:46.279Z,6.40
2018-10-21T18:28:17.657Z,6.30
2018-10-21T18:30:46.735Z,6.30
2018-10-21T18:33:15.736Z,6.20
2018-10-21T18:35:44.655Z,6.20
2018-10-21T18:38:13.623Z,6.10
2018-10-21T18:40:42.813Z,6.10
2018-10-21T18:43:11.738Z,6.10
2018-10-21T18:45:40.679Z,6.10
2018-10-21T18:48:13.641Z,6.00
2018-10-21T18:50:42.621Z,6.00
2018-10-21T18:53:11.834Z,6.00
2018-10-21T18:55:40.796Z,5.80
2018-10-21T18:58:09.911Z,5.80
2018-10-21T19:00:38.887Z,5.70
2018-10-21T19:03:07.877Z,5.60
2018-10-21T19:05:36.902Z,5.50
2018-10-21T19:08:05.855Z,5.50
2018-10-21T19:10:34.889Z,5.50
2018-10-21T19:13:03.949Z,5.50
2018-10-21T19:15:32.917Z,5.40
2018-10-21T19:18:01.951Z,5.40
2018-10-21T19:20:30.941Z,5.40
2018-10-21T19:22:59.805Z,5.30
2018-10-21T19:25:28.645Z,5.20
2018-10-21T19:27:57.711Z,5.10
2018-10-21T19:30:36.751Z,5.10
2018-10-21T19:33:06.060Z,5.00
2018-10-21T19:35:35.193Z,4.90
2018-10-21T19:38:04.251Z,4.90
2018-10-21T19:40:33.238Z,4.80
2018-10-21T19:43:03.324Z,4.80
2018-10-21T19:45:32.099Z,4.70
2018-10-21T19:48:00.973Z,4.80
2018-10-21T19:50:30.840Z,4.70
2018-10-21T19:52:59.763Z,4.70
2018-10-21T19:55:28.700Z,4.80
2018-10-21T19:57:57.652Z,4.80
2018-10-21T20:00:27.499Z,4.80
2018-10-21T20:02:56.412Z,4.80
2018-10-21T20:05:25.257Z,4.70
2018-10-21T20:07:57.260Z,4.70
2018-10-21T20:10:26.178Z,4.70
2018-10-21T20:12:55.190Z,4.70
2018-10-21T20:15:24.138Z,4.70
2018-10-21T20:17:53.021Z,4.70
2018-10-21T20:20:21.909Z,4.80
2018-10-21T20:22:51.538Z,4.70
2018-10-21T20:25:21.717Z,4.70
2018-10-21T20:27:50.778Z,4.60
2018-10-21T20:30:20.520Z,4.60
2018-10-21T20:32:49.678Z,4.50
2018-10-21T20:35:18.715Z,4.40
2018-10-21T20:37:47.640Z,4.50
2018-10-21T20:40:16.707Z,4.40
2018-10-21T20:42:45.519Z,4.40
2018-10-21T20:45:14.843Z,4.30
2018-10-21T20:47:43.871Z,4.30
2018-10-21T20:50:13.904Z,4.10
2018-10-21T20:52:43.522Z,4.00
2018-10-21T20:55:15.443Z,4.00
2018-10-21T20:57:44.357Z,3.90
2018-10-21T21:00:13.318Z,3.80
2018-10-21T21:02:42.209Z,3.80
2018-10-21T21:05:11.230Z,3.70
2018-10-21T21:07:40.074Z,3.70
2018-10-21T21:10:09.538Z,3.70
2018-10-21T21:12:38.297Z,3.60
2018-10-21T21:15:08.377Z,3.50
2018-10-21T21:17:37.288Z,3.50
2018-10-21T21:20:06.844Z,3.50
2018-10-21T21:22:35.795Z,3.50
2018-10-21T21:25:05.558Z,3.40
2018-10-21T21:27:34.483Z,3.40
2018-10-21T21:30:03.613Z,3.40
2018-10-21T21:32:32.393Z,3.30
2018-10-21T21:35:01.220Z,3.30
2018-10-21T21:37:34.439Z,3.30
2018-10-21T21:40:07.996Z,3.30
2018-10-21T21:42:36.815Z,3.30
2018-10-21T21:45:06.211Z,3.40
2018-10-21T21:47:35.112Z,3.20
2018-10-21T21:50:04.255Z,3.30
2018-10-21T21:52:34.130Z,3.20
2018-10-21T21:55:02.930Z,3.20
2018-10-21T21:57:31.896Z,3.20
2018-10-21T22:00:00.882Z,3.20
2018-10-21T22:02:29.727Z,3.20
2018-10-21T22:04:58.453Z,3.30
2018-10-21T22:07:27.384Z,3.30
2018-10-21T22:09:56.594Z,3.20
2018-10-21T22:12:25.374Z,3.20
2018-10-21T22:14:54.239Z,3.20
2018-10-21T22:17:23.796Z,3.10
2018-10-21T22:19:52.645Z,3.10
2018-10-21T22:22:21.551Z,3.10
2018-10-21T22:24:50.479Z,3.10
2018-10-21T22:27:19.456Z,3.10
2018-10-21T22:29:50.440Z,3.00
2018-10-21T22:32:19.329Z,3.00
2018-10-21T22:34:48.163Z,3.00
2018-10-21T22:37:18.032Z,3.00
2018-10-21T22:39:46.982Z,2.90
2018-10-21T22:42:15.827Z,2.80
2018-10-21T22:44:44.732Z,2.80
2018-10-21T22:47:13.685Z,2.80
2018-10-21T22:49:42.666Z,2.70
2018-10-21T22:52:11.653Z,2.70
2018-10-21T22:54:40.390Z,2.70
2018-10-21T22:57:14.333Z,2.70
2018-10-21T22:59:43.147Z,2.60
2018-10-21T23:02:12.051Z,2.70
2018-10-21T23:04:41.094Z,2.70
2018-10-21T23:07:10.093Z,2.70
2018-10-21T23:09:39.710Z,2.60
2018-10-21T23:12:08.821Z,2.60
2018-10-21T23:14:37.965Z,2.60
2018-10-21T23:17:06.915Z,2.60
2018-10-21T23:19:44.540Z,2.60
2018-10-21T23:22:13.467Z,2.50
2018-10-21T23:24:42.518Z,2.50
2018-10-21T23:27:12.030Z,2.40
2018-10-21T23:29:41.572Z,2.30
2018-10-21T23:32:10.411Z,2.20
2018-10-21T23:34:39.429Z,2.20
2018-10-21T23:37:08.758Z,2.20
2018-10-21T23:39:38.819Z,2.10
2018-10-21T23:42:07.672Z,2.10
2018-10-21T23:44:36.494Z,2.10
2018-10-21T23:47:05.560Z,2.20
2018-10-21T23:49:35.890Z,2.20
2018-10-21T23:52:07.774Z,2.20
2018-10-21T23:54:36.652Z,2.20
2018-10-21T23:57:07.076Z,2.10
2018-10-21T23:59:36.698Z,2.10
